Time;durP1;ratioP1;P1;durP2;ratioP2;P2;SDS_P1;SDS_P2;PMS_P1;PMS_P2;Temp;Humidity;BMP_temperature;BMP_pressure;BME280_temperature;BME280_humidity;BME280_pressure;Samples;Min_cycle;Max_cycle;Signal;HPM_P1;HPM_P2
2022/01/14 00:00:56;;;;;;;14.30;9.80;;;;;;;4.50;88.30;100993.13;84525;1333;25467;-81
2022/01/14 00:03:05;;;;;;;18.70;11.30;;;;;;;4.51;88.07;100989.84;84567;1331;23925;-69
2022/01/14 00:05:17;;;;;;;16.20;10.40;;;;;;;4.51;88.24;100994.48;84492;1332;22819;-70
2022/01/14 00:07:26;;;;;;;17.60;11.20;;;;;;;4.50;88.36;101003.32;84515;1330;23102;-80
2022/01/14 00:09:39;;;;;;;18.70;10.70;;;;;;;4.50;88.40;100996.75;84537;1332;24290;-80
2022/01/14 00:11:55;;;;;;;15.20;10.00;;;;;;;4.50;88.06;100992.59;84533;1330;22593;-81
2022/01/14 00:14:21;;;;;;;16.00;10.60;;;;;;;4.49;88.29;100999.52;84523;1331;24370;-81
2022/01/14 00:16:30;;;;;;;16.30;10.40;;;;;;;4.49;88.08;100994.33;84561;1332;24276;-80
2022/01/14 00:18:42;;;;;;;20.00;10.90;;;;;;;4.50;88.37;100992.60;84471;1332;23819;-80
2022/01/14 00:20:51;;;;;;;16.90;11.40;;;;;;;4.53;88.17;100981.37;84469;1333;22618;-81
2022/01/14 00:23:00;;;;;;;18.60;11.60;;;;;;;4.55;88.06;100978.06;84506;1328;24294;-80
2022/01/14 00:32:45;;;;;;;17.40;11.30;;;;;;;4.47;87.75;100960.98;84502;1332;22600;-81
2022/01/14 00:34:57;;;;;;;14.60;9.30;;;;;;;4.45;87.76;100950.29;84470;1332;22617;-82
2022/01/14 00:37:07;;;;;;;13.10;9.10;;;;;;;4.48;88.04;100957.70;84468;1332;25436;-70
2022/01/14 00:39:19;;;;;;;15.10;10.60;;;;;;;4.51;88.02;100953.55;84482;1332;23813;-70
2022/01/14 00:41:28;;;;;;;17.10;11.50;;;;;;;4.52;88.07;100949.39;84491;1332;22603;-80
2022/01/14 00:43:40;;;;;;;15.40;10.70;;;;;;;4.51;87.99;100939.04;84471;1332;22606;-81
2022/01/14 00:45:51;;;;;;;16.40;11.30;;;;;;;4.46;87.76;100934.05;84454;1332;22600;-80
2022/01/14 00:48:03;;;;;;;15.90;9.10;;;;;;;4.44;87.81;100936.13;84498;1332;22897;-70
2022/01/14 00:50:14;;;;;;;18.30;9.30;;;;;;;4.43;87.75;100932.83;84514;1333;22623;-71
2022/01/14 00:52:23;;;;;;;11.30;8.70;;;;;;;4.45;88.09;100926.45;84504;1324;22725;-80
2022/01/14 00:54:32;;;;;;;13.50;9.60;;;;;;;4.47;87.82;100926.95;84500;1332;24341;-81
2022/01/14 00:57:01;;;;;;;15.70;10.40;;;;;;;4.47;87.72;100926.08;84473;1327;23810;-81
2022/01/14 00:59:16;;;;;;;19.40;11.20;;;;;;;4.47;87.98;100922.96;84471;1332;22639;-80
2022/01/14 01:01:28;;;;;;;17.80;12.10;;;;;;;4.46;87.87;100921.42;84445;1332;24088;-70
2022/01/14 01:03:37;;;;;;;20.70;11.90;;;;;;;4.45;87.63;100925.41;84463;1332;25113;-70
2022/01/14 01:05:46;;;;;;;22.40;11.40;;;;;;;4.44;87.60;100926.80;84460;1332;24027;-70
2022/01/14 01:08:03;;;;;;;21.40;11.90;;;;;;;4.43;87.61;100925.07;84467;1334;22606;-80
2022/01/14 01:10:16;;;;;;;19.70;11.50;;;;;;;4.42;87.71;100920.06;84481;1333;22670;-81
2022/01/14 01:12:34;;;;;;;19.90;11.70;;;;;;;4.39;87.42;100917.31;84514;1328;22598;-70
2022/01/14 01:14:47;;;;;;;23.10;11.30;;;;;;;4.38;87.46;100912.66;84555;1330;22607;-70
2022/01/14 01:16:57;;;;;;;19.80;12.40;;;;;;;4.37;87.57;100906.09;84601;1330;22647;-81
2022/01/14 01:19:06;;;;;;;23.90;12.00;;;;;;;4.36;87.52;100897.13;83837;1327;1003881;-81
2022/01/14 01:21:14;;;;;;;17.40;10.50;;;;;;;4.34;87.65;100895.23;84591;1330;24002;-71
2022/01/14 01:23:23;;;;;;;20.80;11.70;;;;;;;4.34;87.55;100884.52;84578;1330;22823;-70
2022/01/14 01:25:38;;;;;;;18.80;10.50;;;;;;;4.35;87.56;100882.27;84595;1330;22851;-70
2022/01/14 01:27:49;;;;;;;18.50;11.40;;;;;;;4.37;87.69;100881.05;84598;1330;22653;-70
2022/01/14 01:30:12;;;;;;;18.60;10.20;;;;;;;4.39;87.56;100880.18;84585;1330;24221;-69
2022/01/14 01:32:21;;;;;;;15.50;10.00;;;;;;;4.39;87.56;100876.21;84615;1328;22835;-81
2022/01/14 01:34:30;;;;;;;19.10;11.60;;;;;;;4.39;87.44;100881.21;84583;1332;25390;-80
2022/01/14 01:36:45;;;;;;;24.50;13.60;;;;;;;4.39;87.80;100878.80;84592;1330;24136;-79
2022/01/14 01:38:54;;;;;;;19.30;11.70;;;;;;;4.37;87.45;100874.83;84579;1331;22896;-81
2022/01/14 01:41:04;;;;;;;23.40;12.60;;;;;;;4.34;87.49;100880.04;84584;1330;25498;-80
2022/01/14 01:43:12;;;;;;;;;;;;;;;4.34;87.06;100879.67;84596;1330;22590;-81
2022/01/14 01:45:24;;;;;;;22.30;11.40;;;;;;;4.30;87.25;100881.94;84572;1330;22595;-81
2022/01/14 01:47:37;;;;;;;16.60;10.00;;;;;;;4.32;87.43;100882.27;84604;1330;25316;-80
2022/01/14 01:49:48;;;;;;;16.40;10.40;;;;;;;4.32;87.36;100876.05;84590;1330;24149;-80
2022/01/14 01:52:01;;;;;;;19.20;10.90;;;;;;;4.34;87.75;100870.35;84596;1330;22600;-81
2022/01/14 01:54:10;;;;;;;20.40;11.80;;;;;;;4.33;87.15;100866.90;84611;1331;25458;-80
2022/01/14 01:56:21;;;;;;;15.90;10.60;;;;;;;4.32;87.28;100864.48;84594;1329;22886;-71
2022/01/14 01:58:30;;;;;;;21.10;12.10;;;;;;;4.32;87.52;100865.86;84595;1330;22716;-70
2022/01/14 02:00:39;;;;;;;19.40;11.50;;;;;;;4.31;87.25;100857.59;84602;1330;22838;-69
2022/01/14 02:02:48;;;;;;;18.90;11.10;;;;;;;4.30;87.40;100851.20;84594;1329;23884;-81
2022/01/14 02:05:00;;;;;;;21.40;10.20;;;;;;;4.30;86.90;100847.40;84588;1330;22613;-81
2022/01/14 02:07:12;;;;;;;16.10;9.50;;;;;;;4.30;87.45;100835.66;84598;1330;25502;-69
2022/01/14 02:09:21;;;;;;;13.80;10.20;;;;;;;4.32;87.30;100828.91;84569;1329;22607;-70
2022/01/14 02:11:29;;;;;;;18.30;9.90;;;;;;;4.34;87.35;100825.62;84606;1329;22943;-70
2022/01/14 02:13:41;;;;;;;16.00;9.80;;;;;;;4.34;87.54;100821.64;84614;1328;23245;-70
2022/01/14 02:16:12;;;;;;;16.80;10.00;;;;;;;4.33;87.38;100820.09;84578;1330;22604;-70
2022/01/14 02:18:31;;;;;;;16.90;8.40;;;;;;;4.34;87.62;100810.25;84541;1332;22755;-80
2022/01/14 02:23:09;;;;;;;14.70;8.00;;;;;;;4.35;87.49;100800.41;84610;1332;22720;-81
2022/01/14 02:25:28;;;;;;;15.60;8.80;;;;;;;4.38;87.59;100806.26;84598;1329;23813;-81
2022/01/14 02:27:41;;;;;;;14.50;8.70;;;;;;;4.42;87.49;100803.46;84608;1330;23976;-80
2022/01/14 02:29:53;;;;;;;16.30;8.80;;;;;;;4.44;87.78;100804.15;84593;1330;22812;-81
2022/01/14 02:32:02;;;;;;;18.20;9.10;;;;;;;4.46;87.46;100794.79;84644;1330;22909;-79
2022/01/14 02:34:12;;;;;;;17.30;9.40;;;;;;;4.47;87.77;100785.45;84570;1333;22574;-80
2022/01/14 02:36:21;;;;;;;15.00;10.30;;;;;;;4.48;87.75;100776.65;84609;1330;24373;-71
2022/01/14 02:38:34;;;;;;;21.80;9.70;;;;;;;4.47;87.44;100776.48;84611;1330;22896;-69
2022/01/14 02:40:43;;;;;;;18.10;8.30;;;;;;;4.47;87.38;100773.71;84603;1329;22629;-70
2022/01/14 02:42:54;;;;;;;12.60;7.00;;;;;;;4.48;87.51;100765.23;84618;1324;22639;-80
2022/01/14 02:45:06;;;;;;;11.30;7.40;;;;;;;4.50;87.41;100759.37;84605;1329;24125;-81
2022/01/14 02:47:17;;;;;;;10.80;7.40;;;;;;;4.51;87.55;100753.14;84625;1329;22595;-82
2022/01/14 02:49:32;;;;;;;13.20;7.70;;;;;;;4.52;87.49;100752.25;84617;1328;22868;-81
2022/01/14 02:51:40;;;;;;;13.10;8.00;;;;;;;4.53;87.40;100744.32;84618;1329;22882;-81
2022/01/14 02:53:59;;;;;;;12.10;8.00;;;;;;;4.53;87.89;100740.35;84644;1329;22611;-81
2022/01/14 02:56:10;;;;;;;12.80;7.80;;;;;;;4.52;87.57;100743.27;84647;1330;22620;-78
2022/01/14 02:58:23;;;;;;;12.00;7.70;;;;;;;4.54;87.61;100732.73;84594;1329;22895;-70
2022/01/14 03:00:33;;;;;;;11.30;8.10;;;;;;;4.52;87.76;100734.13;84629;1328;23951;-71
2022/01/14 03:02:45;;;;;;;12.10;8.00;;;;;;;4.54;87.56;100727.38;84087;1330;806769;-70
2022/01/14 03:04:55;;;;;;;10.50;7.10;;;;;;;4.57;87.86;100722.50;84608;1329;24176;-70
2022/01/14 03:07:04;;;;;;;17.20;7.30;;;;;;;4.60;87.92;100724.90;84628;1329;24186;-69
2022/01/14 03:09:16;;;;;;;14.30;7.60;;;;;;;4.61;87.69;100724.90;84615;1327;22605;-70
2022/01/14 03:11:30;;;;;;;15.80;8.10;;;;;;;4.57;87.64;100718.54;84578;1332;22597;-81
2022/01/14 03:13:39;;;;;;;11.80;7.10;;;;;;;4.54;87.79;100714.41;84605;1330;24396;-82
2022/01/14 03:15:48;;;;;;;11.40;6.70;;;;;;;4.52;87.71;100720.29;84581;1327;22647;-80
2022/01/14 03:18:00;;;;;;;9.90;6.70;;;;;;;4.52;87.96;100723.93;84625;1329;22601;-81
2022/01/14 03:20:36;;;;;;;17.40;7.10;;;;;;;4.50;87.85;100719.64;84567;1330;22614;-80
2022/01/14 03:23:02;;;;;;;8.70;5.80;;;;;;;4.50;88.17;100721.88;84613;1329;22608;-70
2022/01/14 03:27:40;;;;;;;;;;;;;;;4.55;87.93;100736.88;84638;1330;23883;-70
2022/01/14 03:29:52;;;;;;;11.70;7.20;;;;;;;4.51;87.93;100741.73;84598;1331;22666;-69
2022/01/14 03:32:01;;;;;;;10.70;7.10;;;;;;;4.51;88.12;100748.81;84614;1330;22625;-80
2022/01/14 03:34:10;;;;;;;10.80;7.30;;;;;;;4.49;87.90;100752.29;84565;1331;23818;-81
2022/01/14 03:36:19;;;;;;;10.90;6.80;;;;;;;4.47;87.95;100753.67;84639;1330;22815;-71
2022/01/14 03:38:28;;;;;;;10.40;6.50;;;;;;;4.45;88.15;100750.07;84582;1330;25295;-71
2022/01/14 03:40:40;;;;;;;9.60;6.30;;;;;;;4.44;87.99;100759.23;84492;1328;22704;-70
2022/01/14 03:42:52;;;;;;;12.10;6.40;;;;;;;4.44;87.85;100764.26;84555;1330;22731;-69
2022/01/14 03:45:04;;;;;;;11.10;6.40;;;;;;;4.47;88.23;100762.48;84597;1329;24247;-70
2022/01/14 03:47:12;;;;;;;11.30;6.30;;;;;;;4.48;88.27;100757.64;84638;1330;25473;-81
2022/01/14 03:49:21;;;;;;;14.70;7.20;;;;;;;4.50;87.90;100753.15;84585;1329;22606;-81
2022/01/14 03:51:30;;;;;;;12.00;7.30;;;;;;;4.48;88.15;100743.14;84651;1330;24141;-80
2022/01/14 03:53:42;;;;;;;8.70;6.30;;;;;;;4.50;88.29;100739.67;84590;1330;23939;-81
2022/01/14 03:55:54;;;;;;;14.10;7.70;;;;;;;4.50;88.27;100743.80;84607;1330;22599;-80
2022/01/14 03:58:03;;;;;;;9.60;6.70;;;;;;;4.47;88.08;100752.81;84612;1332;22645;-70
2022/01/14 04:00:14;;;;;;;8.90;6.00;;;;;;;4.46;87.87;100747.12;84615;1330;25442;-70
2022/01/14 04:02:26;;;;;;;9.50;5.80;;;;;;;4.46;88.25;100743.15;84632;1333;23931;-71
2022/01/14 04:04:35;;;;;;;12.30;7.00;;;;;;;4.48;88.36;100745.89;84611;1329;24139;-70
2022/01/14 04:06:47;;;;;;;11.00;6.40;;;;;;;4.53;88.68;100750.02;83883;1328;1002901;-71
2022/01/14 04:08:59;;;;;;;10.00;6.20;;;;;;;4.52;88.22;100747.25;84579;1329;22633;-70
2022/01/14 04:11:11;;;;;;;7.40;5.50;;;;;;;4.47;88.55;100730.71;84616;1326;23004;-78
2022/01/14 04:13:35;;;;;;;10.90;5.50;;;;;;;4.45;88.56;100730.71;84594;1330;25307;-80
2022/01/14 04:15:48;;;;;;;6.60;5.10;;;;;;;4.46;88.47;100724.50;84562;1332;25453;-80
2022/01/14 04:17:56;;;;;;;8.40;5.70;;;;;;;4.48;88.48;100727.06;84613;1327;22599;-69
2022/01/14 04:20:11;;;;;;;7.60;4.70;;;;;;;4.48;88.25;100729.65;84602;1330;23084;-70
2022/01/14 04:22:20;;;;;;;11.70;6.20;;;;;;;4.48;88.37;100719.80;84577;1330;22610;-80
2022/01/14 04:24:31;;;;;;;8.10;5.60;;;;;;;4.49;88.61;100722.58;84626;1330;22617;-81
2022/01/14 04:26:40;;;;;;;9.70;5.50;;;;;;;4.50;88.46;100717.57;84640;1328;24347;-80
2022/01/14 04:28:51;;;;;;;9.00;5.70;;;;;;;4.49;88.49;100708.41;84583;1330;22636;-81
2022/01/14 04:31:00;;;;;;;6.50;5.30;;;;;;;4.49;88.76;100708.92;84581;1329;22604;-81
2022/01/14 04:33:09;;;;;;;7.80;4.80;;;;;;;4.49;88.50;100696.84;84593;1329;25316;-69
2022/01/14 04:35:18;;;;;;;7.00;4.30;;;;;;;4.52;88.48;100696.98;84589;1331;24001;-70
2022/01/14 04:37:30;;;;;;;8.80;5.20;;;;;;;4.55;88.49;100691.77;84611;1331;22586;-81
2022/01/14 04:39:39;;;;;;;8.50;5.40;;;;;;;4.58;88.85;100678.27;84585;1329;22658;-80
2022/01/14 04:41:48;;;;;;;7.70;5.10;;;;;;;4.58;88.52;100675.48;84615;1330;22625;-71
2022/01/14 04:43:57;;;;;;;7.50;5.20;;;;;;;4.55;88.63;100667.23;84571;1330;22617;-69
2022/01/14 04:48:32;;;;;;;7.90;5.50;;;;;;;4.53;88.63;100655.52;84364;1332;24073;-70
2022/01/14 04:50:44;;;;;;;5.50;4.50;;;;;;;4.52;88.57;100642.02;84595;1327;22754;-69
2022/01/14 04:52:53;;;;;;;8.50;5.10;;;;;;;4.53;88.67;100644.98;84639;1330;22592;-81
2022/01/14 04:55:02;;;;;;;8.80;6.00;;;;;;;4.52;88.66;100645.15;84605;1330;24168;-80
2022/01/14 04:57:11;;;;;;;11.70;5.50;;;;;;;4.48;88.45;100645.53;84590;1330;22858;-70
2022/01/14 04:59:20;;;;;;;9.70;5.20;;;;;;;4.50;88.82;100648.98;84613;1330;22599;-70
2022/01/14 05:01:29;;;;;;;9.70;5.70;;;;;;;4.48;88.81;100649.52;84637;1327;22632;-69
2022/01/14 05:03:38;;;;;;;6.40;5.70;;;;;;;4.45;88.60;100656.61;84587;1330;23023;-70
2022/01/14 05:05:50;;;;;;;15.40;7.80;;;;;;;4.45;88.44;100653.17;84599;1330;24283;-71
2022/01/14 05:08:00;;;;;;;8.60;6.40;;;;;;;4.47;88.64;100651.75;84604;1330;24006;-71
2022/01/14 05:10:23;;;;;;;9.20;6.10;;;;;;;4.49;88.59;100640.69;84591;1330;22617;-71
2022/01/14 05:12:32;;;;;;;9.60;5.40;;;;;;;4.49;88.61;100635.34;84616;1333;22734;-81
2022/01/14 05:14:44;;;;;;;5.90;4.80;;;;;;;4.52;88.94;100626.66;84544;1332;22946;-80
2022/01/14 05:16:55;;;;;;;9.20;5.10;;;;;;;4.52;88.79;100621.66;84616;1330;22878;-71
2022/01/14 05:19:04;;;;;;;8.00;5.60;;;;;;;4.52;88.79;100620.95;84599;1330;22826;-71
2022/01/14 05:21:14;;;;;;;5.50;4.50;;;;;;;4.52;88.35;100616.12;84645;1330;25577;-72
2022/01/14 05:23:24;;;;;;;7.60;4.90;;;;;;;4.53;88.55;100614.73;84589;1330;25480;-71
2022/01/14 05:25:33;;;;;;;7.50;4.50;;;;;;;4.53;88.54;100606.96;84604;1330;22682;-71
2022/01/14 05:27:44;;;;;;;5.30;3.90;;;;;;;4.55;88.69;100601.08;84610;1330;22690;-79
2022/01/14 05:29:54;;;;;;;7.70;4.10;;;;;;;4.57;88.58;100605.19;84587;1330;22609;-71
2022/01/14 05:32:05;;;;;;;8.90;4.90;;;;;;;4.58;88.28;100602.25;84584;1330;22873;-81
2022/01/14 05:34:14;;;;;;;4.40;3.60;;;;;;;4.55;88.45;100603.67;84585;1330;22753;-79
2022/01/14 05:36:26;;;;;;;7.20;3.60;;;;;;;4.55;88.26;100601.42;84649;1330;22750;-80
2022/01/14 05:38:35;;;;;;;6.10;3.70;;;;;;;4.54;88.46;100595.56;84598;1331;22752;-81
2022/01/14 05:40:44;;;;;;;7.20;4.00;;;;;;;4.54;88.35;100593.83;84614;1330;25309;-80
2022/01/14 05:42:53;;;;;;;6.10;3.10;;;;;;;4.54;88.32;100595.73;84567;1330;23936;-71
2022/01/14 05:45:05;;;;;;;5.60;3.00;;;;;;;4.55;88.07;100589.50;84592;1327;22802;-71
2022/01/14 05:47:17;;;;;;;4.40;3.00;;;;;;;4.58;88.20;100592.05;84624;1330;24294;-69
2022/01/14 05:49:26;;;;;;;6.20;3.00;;;;;;;4.60;88.26;100592.38;84603;1330;22658;-70
2022/01/14 05:51:35;;;;;;;4.70;3.00;;;;;;;4.63;88.32;100585.95;84615;1330;24274;-69
2022/01/14 05:53:47;;;;;;;5.70;3.60;;;;;;;4.65;88.32;100584.73;84573;1330;25294;-70
2022/01/14 05:55:55;;;;;;;6.70;3.50;;;;;;;4.64;88.01;100574.03;84599;1330;24016;-69
2022/01/14 05:58:04;;;;;;;6.70;3.50;;;;;;;4.61;87.80;100576.11;84601;1330;22599;-69
2022/01/14 06:00:15;;;;;;;6.80;3.00;;;;;;;4.60;87.78;100569.41;84601;1330;22617;-70
2022/01/14 06:02:27;;;;;;;7.20;4.20;;;;;;;4.59;87.71;100570.27;84607;1330;22629;-70
2022/01/14 06:04:39;;;;;;;5.10;3.00;;;;;;;4.59;87.63;100575.80;84584;1330;22621;-80
2022/01/14 06:06:48;;;;;;;4.20;3.10;;;;;;;4.58;87.65;100572.88;84599;1330;25286;-79
2022/01/14 06:09:00;;;;;;;4.00;2.40;;;;;;;4.58;87.65;100564.41;84556;1334;24091;-80
2022/01/14 06:11:09;;;;;;;4.60;2.60;;;;;;;4.60;87.60;100558.69;84604;1330;24419;-69
2022/01/14 06:13:21;;;;;;;6.00;3.10;;;;;;;4.60;87.59;100563.01;84606;1330;22597;-69
2022/01/14 06:15:31;;;;;;;7.50;2.90;;;;;;;4.60;87.83;100573.89;84563;1330;22608;-70
2022/01/14 06:17:41;;;;;;;5.30;3.30;;;;;;;4.61;87.59;100568.17;84640;1330;22697;-70
2022/01/14 06:19:50;;;;;;;5.20;2.70;;;;;;;4.60;87.59;100558.86;84604;1328;23958;-70
2022/01/14 06:21:59;;;;;;;3.20;2.70;;;;;;;4.61;87.42;100561.95;84624;1331;22781;-81
2022/01/14 06:24:09;;;;;;;5.90;2.90;;;;;;;4.62;87.54;100548.80;84588;1330;22797;-81
2022/01/14 06:26:18;;;;;;;5.00;3.70;;;;;;;4.64;87.86;100539.48;84628;1329;22566;-70
2022/01/14 06:28:27;;;;;;;7.90;5.10;;;;;;;4.63;87.68;100540.34;84599;1329;22630;-69
2022/01/14 06:30:36;;;;;;;4.40;3.80;;;;;;;4.63;87.56;100540.51;84563;1333;22624;-70
2022/01/14 06:32:45;;;;;;;4.70;2.40;;;;;;;4.63;87.67;100540.86;84610;1330;25315;-80
2022/01/14 06:34:54;;;;;;;4.50;2.60;;;;;;;4.64;87.48;100545.34;84588;1333;22558;-80
2022/01/14 06:37:06;;;;;;;5.70;2.40;;;;;;;4.65;87.46;100539.11;84603;1327;22879;-83
2022/01/14 06:39:16;;;;;;;5.50;3.10;;;;;;;4.67;87.43;100539.08;84600;1330;24255;-69
2022/01/14 06:41:26;;;;;;;4.00;3.10;;;;;;;4.66;87.41;100534.61;84604;1330;22645;-69
2022/01/14 06:43:35;;;;;;;6.40;2.90;;;;;;;4.66;87.58;100544.62;84612;1330;23929;-70
2022/01/14 06:45:47;;;;;;;3.70;2.60;;;;;;;4.64;87.74;100558.12;84574;1329;22605;-69
2022/01/14 06:47:56;;;;;;;3.80;2.50;;;;;;;4.62;87.66;100555.38;84601;1329;22621;-80
2022/01/14 06:50:06;;;;;;;10.10;2.60;;;;;;;4.61;87.84;100550.55;84584;1332;22903;-80
2022/01/14 06:52:16;;;;;;;4.00;2.40;;;;;;;4.64;88.01;100551.73;84496;1333;24464;-81
2022/01/14 06:54:25;;;;;;;5.30;2.30;;;;;;;4.65;88.14;100541.70;84582;1329;22631;-80
2022/01/14 06:56:34;;;;;;;4.30;2.00;;;;;;;4.66;88.03;100535.46;84617;1330;22605;-68
2022/01/14 06:58:43;;;;;;;9.60;4.30;;;;;;;4.69;87.98;100534.06;84552;1333;24388;-70
2022/01/14 07:00:55;;;;;;;4.00;2.10;;;;;;;4.70;88.14;100533.87;84593;1329;22587;-70
2022/01/14 07:03:04;;;;;;;4.30;2.30;;;;;;;4.69;88.14;100534.40;84612;1330;22647;-70
2022/01/14 07:05:14;;;;;;;5.90;2.80;;;;;;;4.67;88.16;100544.43;84597;1330;22617;-80
2022/01/14 07:07:24;;;;;;;4.90;3.20;;;;;;;4.68;88.13;100538.73;84604;1330;23812;-70
2022/01/14 07:09:55;;;;;;;13.30;5.00;;;;;;;4.70;88.38;100542.69;84599;1329;23870;-70
2022/01/14 07:12:05;;;;;;;7.60;3.20;;;;;;;4.71;88.38;100526.41;84575;1332;22623;-80
2022/01/14 07:14:14;;;;;;;3.40;1.80;;;;;;;4.74;88.74;100523.12;84621;1331;24370;-78
2022/01/14 07:16:23;;;;;;;3.40;2.00;;;;;;;4.77;88.60;100517.54;84625;1332;22659;-70
2022/01/14 07:18:32;;;;;;;4.20;2.50;;;;;;;4.77;88.67;100509.92;84607;1329;23067;-70
2022/01/14 07:20:41;;;;;;;3.40;2.80;;;;;;;4.77;88.49;100508.02;84608;1329;23074;-71
2022/01/14 07:22:54;;;;;;;9.10;2.50;;;;;;;4.78;88.30;100513.21;84633;1329;22633;-70
2022/01/14 07:25:08;;;;;;;5.70;2.70;;;;;;;4.80;88.52;100514.05;84608;1332;24236;-70
2022/01/14 07:27:17;;;;;;;3.90;2.90;;;;;;;4.80;88.30;100509.73;84586;1329;22691;-73
2022/01/14 07:29:26;;;;;;;3.30;2.20;;;;;;;4.82;88.46;100511.95;84601;1330;22642;-71
2022/01/14 07:31:35;;;;;;;2.30;1.80;;;;;;;4.83;88.82;100510.90;84607;1330;25463;-82
2022/01/14 07:33:47;;;;;;;4.90;2.30;;;;;;;4.85;88.30;100512.95;84595;1333;22654;-82
2022/01/14 07:35:59;;;;;;;4.50;2.40;;;;;;;4.88;88.86;100504.95;84613;1330;24274;-81
2022/01/14 07:38:11;;;;;;;4.20;2.40;;;;;;;4.93;88.89;100508.54;84602;1330;22767;-70
2022/01/14 07:40:20;;;;;;;4.20;2.50;;;;;;;4.94;88.65;100512.68;84576;1329;22610;-70
2022/01/14 07:42:30;;;;;;;3.00;2.70;;;;;;;4.92;88.64;100518.21;84614;1329;23179;-82
2022/01/14 07:44:39;;;;;;;3.60;2.00;;;;;;;4.93;88.59;100511.29;84606;1333;22631;-82
2022/01/14 07:46:51;;;;;;;4.40;1.90;;;;;;;4.95;88.78;100502.64;84631;1333;22615;-70
2022/01/14 07:49:00;;;;;;;2.70;2.20;;;;;;;4.95;88.78;100502.11;84527;1332;22600;-70
2022/01/14 07:51:12;;;;;;;5.00;2.10;;;;;;;4.97;88.61;100505.71;84586;1330;22950;-78
2022/01/14 07:53:21;;;;;;;3.70;2.40;;;;;;;5.00;89.01;100506.19;84591;1329;22722;-70
2022/01/14 07:55:34;;;;;;;4.80;2.20;;;;;;;5.01;88.80;100502.55;84601;1329;23824;-70
2022/01/14 07:57:43;;;;;;;4.60;3.00;;;;;;;5.00;88.75;100497.02;84595;1330;22600;-70
2022/01/14 07:59:55;;;;;;;3.70;2.50;;;;;;;5.00;88.84;100496.52;84589;1329;22894;-70
2022/01/14 08:02:08;;;;;;;4.80;2.50;;;;;;;5.03;88.86;100484.20;84628;1330;23959;-69
2022/01/14 08:04:18;;;;;;;3.30;2.40;;;;;;;5.06;88.87;100463.39;84615;1330;23800;-70
2022/01/14 08:06:31;;;;;;;2.50;2.10;;;;;;;5.10;89.15;100468.53;84607;1329;23851;-70
2022/01/14 08:08:40;;;;;;;3.50;1.90;;;;;;;5.13;89.18;100467.82;84598;1330;22754;-69
2022/01/14 08:10:49;;;;;;;2.80;2.00;;;;;;;5.16;89.04;100460.48;84618;1329;23903;-70
2022/01/14 08:12:58;;;;;;;2.20;1.70;;;;;;;5.19;89.03;100461.83;84629;1329;23864;-70
2022/01/14 08:15:09;;;;;;;3.80;2.80;;;;;;;5.23;89.25;100458.85;84604;1330;25356;-70
2022/01/14 08:17:20;;;;;;;2.80;2.20;;;;;;;5.24;89.13;100451.73;84621;1331;23817;-82
2022/01/14 08:19:33;;;;;;;5.10;2.20;;;;;;;5.24;89.12;100445.16;84613;1330;22626;-82
2022/01/14 08:21:42;;;;;;;2.50;2.20;;;;;;;5.26;89.12;100455.32;84638;1330;22726;-81
2022/01/14 08:23:50;;;;;;;2.70;2.10;;;;;;;5.27;88.97;100453.59;84597;1330;22660;-81
2022/01/14 08:26:02;;;;;;;2.90;2.10;;;;;;;5.28;88.97;100447.19;84615;1328;22721;-81
2022/01/14 08:28:11;;;;;;;2.80;2.10;;;;;;;5.30;89.14;100440.39;84624;1330;23906;-70
2022/01/14 08:30:21;;;;;;;2.80;2.20;;;;;;;5.32;89.41;100430.15;84599;1330;25372;-69
2022/01/14 08:32:29;;;;;;;5.40;2.10;;;;;;;5.32;89.25;100447.46;84636;1330;24142;-69
2022/01/14 08:34:38;;;;;;;2.10;1.90;;;;;;;5.32;89.23;100453.52;84614;1330;22743;-70
2022/01/14 08:36:50;;;;;;;2.40;2.00;;;;;;;5.32;89.23;100447.98;84611;1330;22906;-70
2022/01/14 08:39:00;;;;;;;3.70;1.60;;;;;;;5.31;89.07;100443.30;84584;1331;22606;-67
2022/01/14 08:41:11;;;;;;;2.40;1.90;;;;;;;5.33;89.07;100425.83;84614;1331;22708;-71
2022/01/14 08:43:24;;;;;;;4.40;2.30;;;;;;;5.36;89.31;100423.52;84545;1332;22602;-82
2022/01/14 08:45:39;;;;;;;2.40;1.90;;;;;;;5.39;89.51;100435.25;84622;1333;22867;-82
2022/01/14 08:47:53;;;;;;;3.20;2.40;;;;;;;5.39;89.44;100436.78;84603;1330;22791;-80
2022/01/14 08:50:05;;;;;;;2.80;2.20;;;;;;;5.41;89.63;100431.05;84605;1333;22730;-80
2022/01/14 08:52:15;;;;;;;3.40;2.30;;;;;;;5.42;89.62;100433.65;84600;1330;24267;-69
2022/01/14 08:54:27;;;;;;;3.10;2.10;;;;;;;5.44;89.48;100430.50;84604;1331;22910;-69
2022/01/14 08:56:39;;;;;;;2.40;2.20;;;;;;;5.45;89.48;100431.33;84623;1330;23827;-69
2022/01/14 08:58:48;;;;;;;5.20;2.80;;;;;;;5.47;89.38;100430.11;84536;1333;23881;-70
2022/01/14 09:01:00;;;;;;;4.20;2.50;;;;;;;5.47;89.25;100425.42;84609;1330;25359;-69
2022/01/14 09:03:09;;;;;;;5.30;2.60;;;;;;;5.48;89.32;100417.45;84589;1330;22751;-69
2022/01/14 09:05:20;;;;;;;3.40;2.40;;;;;;;5.49;89.22;100429.55;84616;1330;22595;-70
2022/01/14 09:07:29;;;;;;;5.10;2.60;;;;;;;5.50;89.31;100425.19;84609;1332;22905;-70
2022/01/14 09:09:38;;;;;;;4.00;3.10;;;;;;;5.53;89.55;100419.80;84613;1327;22621;-69
2022/01/14 09:11:47;;;;;;;3.70;2.70;;;;;;;5.54;89.58;100423.75;84614;1330;23813;-81
2022/01/14 09:13:56;;;;;;;4.30;2.00;;;;;;;5.56;89.56;100416.63;84601;1327;22593;-82
2022/01/14 09:16:17;;;;;;;2.80;2.10;;;;;;;5.57;89.36;100423.54;84612;1330;22742;-83
2022/01/14 09:18:26;;;;;;;2.60;2.00;;;;;;;5.58;89.49;100421.27;84628;1330;25455;-81
2022/01/14 09:20:38;;;;;;;2.80;2.60;;;;;;;5.59;89.72;100425.40;84607;1330;22609;-83
2022/01/14 09:22:49;;;;;;;3.30;2.50;;;;;;;5.62;89.63;100417.92;84625;1330;22765;-70
2022/01/14 09:25:00;;;;;;;3.70;2.70;;;;;;;5.63;89.40;100413.40;84607;1332;22681;-69
2022/01/14 09:27:10;;;;;;;3.20;2.00;;;;;;;5.65;89.64;100398.27;84577;1332;22647;-80
2022/01/14 09:29:19;;;;;;;4.30;3.60;;;;;;;5.68;89.38;100415.38;84595;1332;24013;-81
2022/01/14 09:31:28;;;;;;;2.50;2.10;;;;;;;5.69;89.50;100406.36;84629;1330;22605;-80
2022/01/14 09:33:38;;;;;;;3.00;2.30;;;;;;;5.70;89.57;100404.95;84588;1330;22619;-81
2022/01/14 09:35:46;;;;;;;;;;;;;;;5.73;89.42;100405.10;84606;1330;22878;-82
2022/01/14 09:37:54;;;;;;;6.90;1.80;;;;;;;5.74;89.81;100397.27;84585;1329;23796;-79
2022/01/14 09:40:03;;;;;;;3.80;1.80;;;;;;;5.79;89.56;100388.88;84606;1330;22758;-79
2022/01/14 09:42:12;;;;;;;3.80;2.20;;;;;;;5.84;89.65;100395.00;84555;1331;22615;-71
2022/01/14 09:44:24;;;;;;;2.70;1.80;;;;;;;5.87;89.31;100401.20;84585;1333;22687;-69
2022/01/14 09:46:33;;;;;;;2.60;1.90;;;;;;;5.91;89.58;100401.14;84622;1330;22763;-70
2022/01/14 09:48:42;;;;;;;2.20;1.90;;;;;;;5.93;89.47;100392.96;84594;1330;22738;-70
2022/01/14 09:50:54;;;;;;;2.80;2.00;;;;;;;5.94;89.46;100389.14;84597;1330;22589;-70
2022/01/14 09:53:05;;;;;;;3.20;2.00;;;;;;;5.97;89.05;100388.94;84586;1327;22655;-70
2022/01/14 09:55:12;;;;;;;;;;;;;;;5.98;89.05;100378.70;84562;1331;24291;-70
2022/01/14 09:57:23;;;;;;;2.50;1.70;;;;;;;5.98;89.37;100380.94;84499;1332;24344;-70
2022/01/14 09:59:32;;;;;;;1.50;1.20;;;;;;;6.00;89.05;100390.07;84567;1331;22707;-70
2022/01/14 10:01:45;;;;;;;2.20;1.80;;;;;;;6.02;89.17;100387.11;84579;1335;24231;-80
2022/01/14 10:04:00;;;;;;;5.00;2.60;;;;;;;6.01;88.75;100386.95;84627;1330;22631;-81
2022/01/14 10:06:11;;;;;;;2.70;1.60;;;;;;;6.00;88.90;100379.34;84604;1330;22859;-75
2022/01/14 10:08:26;;;;;;;4.20;2.00;;;;;;;5.98;88.93;100376.80;84601;1330;22728;-71
2022/01/14 10:10:38;;;;;;;1.90;1.70;;;;;;;5.97;88.95;100375.43;84587;1330;25448;-70
2022/01/14 10:12:48;;;;;;;3.90;2.30;;;;;;;5.97;88.85;100370.59;84597;1330;22757;-70
2022/01/14 10:15:00;;;;;;;2.10;1.90;;;;;;;5.95;88.88;100365.59;84525;1335;22755;-71
2022/01/14 10:17:11;;;;;;;3.30;2.20;;;;;;;5.94;88.80;100365.27;84628;1327;22850;-75
2022/01/14 10:19:24;;;;;;;3.90;1.90;;;;;;;5.94;89.23;100363.18;84608;1332;22623;-83
2022/01/14 10:21:37;;;;;;;3.70;1.80;;;;;;;5.95;89.19;100355.36;84626;1330;22597;-80
2022/01/14 10:23:48;;;;;;;2.80;2.20;;;;;;;5.98;89.19;100357.94;84619;1331;22763;-79
2022/01/14 10:26:07;;;;;;;2.00;1.80;;;;;;;5.97;88.99;100358.64;84613;1330;23857;-80
2022/01/14 10:28:24;;;;;;;2.60;1.70;;;;;;;5.98;89.16;100350.29;84611;1331;22615;-70